AirNav   TITAN Aviation Fuels
 
 998 users online  

55MO Tightsqueeze Field Airport
Jonesburg, Missouri, USA

GOING TO JONESBURG?


FAA INFORMATION EFFECTIVE 03 NOVEMBER 2022

Location

FAA Identifier: 55MO
Lat/Long: 38-52-17.7800N 091-15-36.7400W
38-52.296333N 091-15.612333W
38.8716056,-91.2602056
(estimated)
Elevation: 831 ft. / 253 m (estimated)
Variation: 03E (1985)
From city: 3 miles NE of JONESBURG, MO
Time zone: UTC -6 (UTC -5 during Daylight Saving Time)
Zip code: 63351

Airport Operations

Airport use: Private use. Permission required prior to landing
Activation date: 02/1981
Control tower: no
ARTCC: KANSAS CITY CENTER
FSS: SAINT LOUIS FLIGHT SERVICE STATION
Attendance: MON-FRI 0800-1700
Wind indicator: yes
Segmented circle: no

Nearby radio navigation aids

VOR radial/distance  VOR name  Freq  Var
FTZr303/17.2FORISTELL VORTAC110.8005E
STLr270/36.3ST LOUIS VORTAC117.4001E

Airport Services

Runway Information

Runway 18/36

Dimensions: 2000 x 80 ft. / 610 x 24 m
Surface: turf
RUNWAY 18  RUNWAY 36
Latitude: 38-52.461000N38-52.131667N
Longitude: 091-15.614833W091-15.609833W
Elevation: 831.0 ft.821.0 ft.
Traffic pattern: leftleft
Obstructions: none50 ft. trees, marked, 350 ft. from runway

Airport Ownership and Management from official FAA records

Ownership: Privately-owned
Owner: M. HENDERSHOT, D. TATE & L. COWIE
25706 TOWNSHIP LINE ROAD
JONESBURG, MO 63351
CO-OWNERS: MARVIN HENDERSHOT, DON TATE AND LEE COWIE
Manager: DON E TATE
31797 HONEY LOCUST ROAD
JONESBURG, MO 63351
Phone 636-488-5218

Airport Operational Statistics

Aircraft based on the field: 7
Single engine airplanes: 3
Gliders airplanes: 4
    

Additional Remarks

FOR CD CTC MIZZOU APCH AT 417-868-5620/5619.

Instrument Procedures

There are no published instrument procedures at 55MO.

Some nearby airports with instrument procedures:

KFYG - Washington Regional Airport (21 nm SE)
H19 - Bowling Green Municipal Airport (30 nm N)
KSUS - Spirit of St Louis Airport (31 nm SE)
KMYJ - Mexico Memorial Airport (31 nm NW)
KFTT - Elton Hensley Memorial Airport (35 nm W)
 
Loc | Ops | Rwys | IFR | FBO | Links
Com | Nav | Svcs | Stats | Notes
Area around 55MO (Tightsqueeze Field Airport)
 
Road maps at: MapQuest Bing Google
 
Aerial photo
No photo
 
Sectional chart

 
Airport distance calculator
Flying to Tightsqueeze Field Airport? Find the distance to fly.

From to 55MO

Sunrise and sunset
Times for 29-Nov-2022
 Local
(UTC-6)
 Zulu
(UTC)
Morning civil twilight06:3412:34
Sunrise07:0413:04
Sunset16:4322:43
Evening civil twilight17:1223:12

Current date and time
Zulu (UTC)  30-Nov-2022 00:36:02
Local (UTC-6)  29-Nov-2022 18:36:02
 
METAR
KFYG 
21nm SE 
300015Z AUTO 29019G29KT 10SM 15/07 A2963 RMK AO2
KMYJ 
31nm NW 
300015Z AUTO 29021G32KT 10SM 02/00 A2971 RMK AO2
KSUS 
31nm SE 
292354Z 26006KT 10SM -RA SCT034 BKN045 OVC095 16/12 A2957 RMK AO2 RAB46 SLP012 P0000 60000 T01560122 10178 20156 53017
KUUV 
39nm S 
300015Z AUTO 31016G22KT 10SM SCT022 BKN037 OVC045 15/07 A2966 RMK AO2
KSET 
39nm E 
292354Z AUTO 19009KT 10SM FEW044 BKN095 14/12 A2956 RMK AO2 SLP008 60000 T01440117 10183 20139 53012
TAF
KSUS 
31nm SE 
292057Z 2921/3018 19015G30KT P6SM SCT030 BKN045 FM292300 22013G24KT P6SM VCSH SCT025 BKN040 FM300200 29014G27KT P6SM BKN040 FM300400 30015G26KT P6SM SCT030
NOTAMs
Click for the latest NOTAMs
NOTAMs are issued by the DoD/FAA and will open in a separate window not controlled by AirNav.

 

 
 

Would you like to see your business listed on this page?

 If your business provides an interesting product or service to pilots, flight crews, aircraft, or users of the Tightsqueeze Field Airport, you should consider listing it here.  To start the listing process, click on the button below
 
Add a business
 

Other Pages about Tightsqueeze Field Airport

Update a link
 
Copyright © AirNav, LLC. All rights reserved. Privacy Policy  Contact